createdAt,value
2022-08-14T00:01:54.524Z,4.60
2022-08-14T00:04:32.270Z,4.70
2022-08-14T00:07:02.605Z,5.07
2022-08-14T00:09:29.931Z,4.55
2022-08-14T00:12:01.705Z,4.72
2022-08-14T00:14:30.958Z,5.38
2022-08-14T00:16:58.094Z,5.13
2022-08-14T00:19:28.535Z,5.30
2022-08-14T00:21:55.954Z,4.95
2022-08-14T00:24:29.095Z,5.30
2022-08-14T00:27:02.026Z,5.35
2022-08-14T00:29:33.187Z,5.70
2022-08-14T00:32:55.736Z,5.45
2022-08-14T00:34:57.115Z,5.70
2022-08-14T00:37:24.894Z,5.90
2022-08-14T00:39:52.263Z,6.32
2022-08-14T00:42:52.452Z,5.20
2022-08-14T00:45:13.836Z,5.90
2022-08-14T00:47:45.210Z,6.63
2022-08-14T00:50:17.612Z,5.60
2022-08-14T00:52:46.384Z,6.30
2022-08-14T00:55:19.838Z,6.18
2022-08-14T00:58:08.081Z,6.47
2022-08-14T01:00:43.044Z,6.22
2022-08-14T01:03:18.157Z,6.15
2022-08-14T01:05:52.199Z,6.70
2022-08-14T01:08:57.768Z,6.72
2022-08-14T01:11:09.710Z,5.78
2022-08-14T01:13:42.599Z,6.57
2022-08-14T01:16:14.864Z,6.53
2022-08-14T01:19:04.563Z,6.57
2022-08-14T01:21:38.686Z,6.57
2022-08-14T01:24:28.765Z,7.00
2022-08-14T01:27:00.298Z,6.35
2022-08-14T01:29:59.310Z,6.63
2022-08-14T01:32:23.030Z,6.30
2022-08-14T01:35:19.420Z,6.50
2022-08-14T01:37:44.527Z,6.47
2022-08-14T01:43:07.690Z,6.97
2022-08-14T01:45:40.138Z,6.00
2022-08-14T01:48:13.594Z,6.28
2022-08-14T01:50:42.094Z,6.50
2022-08-14T01:53:10.630Z,6.25
2022-08-14T01:55:40.244Z,6.07
2022-08-14T01:58:19.569Z,6.35
2022-08-14T02:00:54.399Z,6.43
2022-08-14T02:03:23.539Z,5.97
2022-08-14T02:05:51.087Z,6.75
2022-08-14T02:08:22.453Z,6.10
2022-08-14T02:11:24.436Z,6.72
2022-08-14T02:14:06.778Z,6.70
2022-08-14T02:16:39.352Z,6.93
2022-08-14T02:19:09.672Z,6.35
2022-08-14T02:21:39.592Z,6.83
2022-08-14T02:24:39.776Z,6.97
2022-08-14T02:28:23.735Z,6.88
2022-08-14T02:29:59.725Z,6.68
2022-08-14T02:32:30.458Z,6.63
2022-08-14T02:35:12.617Z,7.07
2022-08-14T02:37:48.157Z,7.32
2022-08-14T02:40:19.079Z,7.05
2022-08-14T02:42:55.012Z,7.53
2022-08-14T02:45:33.456Z,7.20
2022-08-14T02:48:10.460Z,7.10
2022-08-14T02:50:54.826Z,7.05
2022-08-14T02:53:22.399Z,7.35
2022-08-14T02:55:51.102Z,7.45
2022-08-14T02:58:30.451Z,7.43
2022-08-14T03:00:59.024Z,7.60
2022-08-14T03:03:26.463Z,8.00
2022-08-14T03:05:54.371Z,8.07
2022-08-14T03:08:22.958Z,8.82
2022-08-14T03:10:54.069Z,7.82
2022-08-14T03:13:24.712Z,8.57
2022-08-14T03:15:55.979Z,8.20
2022-08-14T03:18:31.735Z,8.50
2022-08-14T03:21:02.663Z,8.98
2022-08-14T03:23:38.141Z,8.85
2022-08-14T03:26:13.209Z,9.32
2022-08-14T03:28:48.492Z,8.88
2022-08-14T03:31:25.875Z,8.63
2022-08-14T03:33:56.021Z,9.45
2022-08-14T03:37:37.939Z,9.23
2022-08-14T03:39:21.160Z,9.15
2022-08-14T03:41:59.969Z,9.20
2022-08-14T03:45:25.503Z,9.23
2022-08-14T03:47:16.211Z,10.02
2022-08-14T03:49:50.214Z,9.68
2022-08-14T03:52:38.902Z,10.05
2022-08-14T03:55:06.679Z,9.75
2022-08-14T03:57:37.219Z,9.82
2022-08-14T04:00:13.788Z,9.70
2022-08-14T04:02:58.453Z,10.15
2022-08-14T04:05:25.737Z,9.77
2022-08-14T04:08:08.727Z,9.80
2022-08-14T04:10:40.066Z,9.68
2022-08-14T04:13:08.619Z,11.32
2022-08-14T04:15:55.869Z,10.18
2022-08-14T04:18:23.699Z,10.10
2022-08-14T04:20:55.039Z,10.32
2022-08-14T04:23:30.010Z,10.10
2022-08-14T04:26:01.588Z,9.73
2022-08-14T04:29:05.440Z,9.95
2022-08-14T04:32:56.404Z,9.27
2022-08-14T04:34:16.921Z,10.00
2022-08-14T04:37:07.867Z,10.15
2022-08-14T04:39:54.482Z,11.25
2022-08-14T04:42:46.790Z,11.25
2022-08-14T04:45:16.260Z,10.90
2022-08-14T04:48:02.930Z,11.20
2022-08-14T04:50:44.875Z,11.27
2022-08-14T04:53:14.804Z,10.43
2022-08-14T04:55:49.829Z,11.85
2022-08-14T04:58:21.453Z,11.43
2022-08-14T05:01:02.392Z,11.65
2022-08-14T05:03:31.891Z,13.15
2022-08-14T05:06:04.664Z,12.63
2022-08-14T05:08:57.132Z,12.30
2022-08-14T05:11:28.037Z,11.50
2022-08-14T05:14:16.728Z,10.85
2022-08-14T05:16:46.789Z,9.68
2022-08-14T05:19:18.127Z,9.23
2022-08-14T05:22:00.921Z,8.70
2022-08-14T05:24:36.652Z,9.23
2022-08-14T05:27:04.852Z,7.88
2022-08-14T05:29:31.935Z,8.82
2022-08-14T05:32:07.283Z,8.40
2022-08-14T05:34:35.808Z,8.70
2022-08-14T05:37:03.641Z,8.32
2022-08-14T05:39:34.352Z,8.82
2022-08-14T05:42:09.944Z,9.82
2022-08-14T05:44:37.221Z,9.60
2022-08-14T05:47:06.408Z,9.73
2022-08-14T05:49:34.713Z,10.10
2022-08-14T05:52:09.801Z,9.68
2022-08-14T05:54:37.179Z,9.82
2022-08-14T05:57:04.947Z,9.00
2022-08-14T05:59:38.837Z,9.15
2022-08-14T06:02:11.699Z,8.73
2022-08-14T06:04:39.185Z,8.80
2022-08-14T06:07:09.525Z,8.52
2022-08-14T06:09:40.833Z,8.20
2022-08-14T06:12:08.590Z,7.70
2022-08-14T06:14:35.731Z,7.80
2022-08-14T06:17:04.383Z,7.55
2022-08-14T06:19:33.094Z,8.13
2022-08-14T06:22:00.274Z,7.30
2022-08-14T06:24:30.482Z,7.20
2022-08-14T06:27:03.865Z,7.50
2022-08-14T06:29:33.476Z,7.60
2022-08-14T06:32:36.446Z,7.53
2022-08-14T06:35:09.738Z,6.72
2022-08-14T06:37:41.403Z,6.90
2022-08-14T06:40:25.497Z,7.50
2022-08-14T06:42:55.787Z,7.13
2022-08-14T06:45:26.947Z,7.60
2022-08-14T06:47:58.737Z,7.40
2022-08-14T06:50:30.255Z,7.53
2022-08-14T06:52:58.363Z,7.10
2022-08-14T06:55:27.668Z,7.53
2022-08-14T06:57:55.995Z,6.95
2022-08-14T07:00:27.245Z,7.00
2022-08-14T07:03:16.711Z,6.82
2022-08-14T07:05:57.598Z,6.82
2022-08-14T07:08:29.805Z,6.88
2022-08-14T07:11:01.552Z,6.93
2022-08-14T07:13:30.382Z,6.27
2022-08-14T07:16:00.692Z,6.53
2022-08-14T07:18:34.272Z,7.03
2022-08-14T07:21:04.682Z,6.78
2022-08-14T07:23:32.325Z,7.00
2022-08-14T07:26:02.212Z,7.43
2022-08-14T07:28:35.933Z,7.45
2022-08-14T07:31:12.387Z,7.70
2022-08-14T07:33:43.623Z,7.35
2022-08-14T07:36:30.278Z,6.55
2022-08-14T07:38:58.548Z,7.18
2022-08-14T07:41:33.484Z,6.95
2022-08-14T07:44:29.589Z,7.50
2022-08-14T07:46:49.819Z,7.25
2022-08-14T07:49:17.864Z,7.35
2022-08-14T07:51:49.322Z,7.35
2022-08-14T07:54:23.442Z,7.18
2022-08-14T07:56:58.077Z,6.82
2022-08-14T07:59:42.291Z,7.57
2022-08-14T08:02:17.436Z,7.30
2022-08-14T08:04:50.371Z,7.45
2022-08-14T08:07:22.559Z,7.40
2022-08-14T08:09:53.438Z,7.32
2022-08-14T08:12:24.942Z,7.25
2022-08-14T08:15:03.392Z,6.70
2022-08-14T08:17:39.049Z,7.43
2022-08-14T08:20:16.817Z,7.57
2022-08-14T08:22:49.799Z,7.40
2022-08-14T08:25:23.285Z,7.78
2022-08-14T08:27:56.671Z,7.45
2022-08-14T08:30:24.312Z,7.43
2022-08-14T08:32:53.877Z,8.25
2022-08-14T08:35:24.324Z,7.65
2022-08-14T08:38:01.396Z,7.53
2022-08-14T08:40:35.801Z,8.15
2022-08-14T08:43:18.308Z,7.47
2022-08-14T08:45:54.347Z,8.18
2022-08-14T08:48:31.400Z,7.47
2022-08-14T08:51:05.252Z,7.65
2022-08-14T08:53:37.461Z,7.68
2022-08-14T08:56:30.291Z,8.15
2022-08-14T08:59:05.078Z,8.25
2022-08-14T09:01:33.609Z,7.95
2022-08-14T09:04:05.035Z,8.27
2022-08-14T09:07:00.946Z,8.75
2022-08-14T09:09:54.187Z,8.15
2022-08-14T09:12:22.436Z,7.63
2022-08-14T09:14:53.167Z,7.30
2022-08-14T09:17:20.690Z,7.07
2022-08-14T09:19:53.737Z,7.22
2022-08-14T09:22:36.101Z,6.97
2022-08-14T09:25:08.990Z,6.95
2022-08-14T09:27:37.959Z,6.68
2022-08-14T09:33:10.961Z,6.53
2022-08-14T09:35:56.438Z,6.75
2022-08-14T09:38:32.934Z,6.90
2022-08-14T09:41:18.396Z,5.75
2022-08-14T09:43:55.119Z,6.40
2022-08-14T09:46:27.693Z,6.13
2022-08-14T09:48:58.953Z,6.10
2022-08-14T09:51:32.883Z,5.60
2022-08-14T09:54:19.525Z,6.07
2022-08-14T09:56:57.237Z,5.15
2022-08-14T09:59:27.849Z,5.35
2022-08-14T10:01:57.163Z,5.35
2022-08-14T10:04:34.769Z,5.10
2022-08-14T10:07:03.639Z,5.60
2022-08-14T10:09:33.192Z,5.22
2022-08-14T10:12:04.508Z,5.13
2022-08-14T10:14:36.564Z,5.70
2022-08-14T10:17:07.093Z,5.05
2022-08-14T10:19:47.342Z,5.22
2022-08-14T10:23:13.222Z,5.07
2022-08-14T10:25:11.723Z,4.82
2022-08-14T10:27:41.359Z,5.13
2022-08-14T10:30:14.858Z,4.65
2022-08-14T10:32:52.039Z,4.80
2022-08-14T10:35:22.970Z,4.80
2022-08-14T10:37:51.851Z,4.70
2022-08-14T10:40:44.045Z,4.10
2022-08-14T10:43:23.829Z,4.10
2022-08-14T10:45:59.831Z,4.10
2022-08-14T10:48:36.548Z,3.90
2022-08-14T10:51:08.598Z,4.25
2022-08-14T10:53:39.794Z,4.40
2022-08-14T10:56:21.529Z,4.75
2022-08-14T10:59:03.657Z,4.70
2022-08-14T11:01:32.495Z,4.10
2022-08-14T11:04:06.245Z,4.00
2022-08-14T11:06:34.488Z,3.90
2022-08-14T11:09:12.496Z,4.00
2022-08-14T11:11:44.411Z,4.05
2022-08-14T11:14:22.085Z,3.90
2022-08-14T11:16:53.580Z,3.63
2022-08-14T11:19:24.275Z,3.70
2022-08-14T11:21:55.520Z,3.53
2022-08-14T11:24:55.007Z,3.55
2022-08-14T11:27:19.014Z,4.13
2022-08-14T11:29:52.818Z,3.90
2022-08-14T11:32:28.180Z,3.70
2022-08-14T11:34:57.469Z,4.13
2022-08-14T11:37:39.411Z,4.07
2022-08-14T11:40:16.395Z,3.70
2022-08-14T11:42:57.661Z,3.70
2022-08-14T11:45:32.829Z,4.20
2022-08-14T11:49:02.610Z,3.55
2022-08-14T11:51:13.451Z,3.60
2022-08-14T11:53:43.492Z,3.67
2022-08-14T11:56:13.313Z,3.80
2022-08-14T11:58:40.453Z,3.80
2022-08-14T12:01:10.879Z,3.85
2022-08-14T12:03:46.762Z,3.95
2022-08-14T12:06:28.958Z,3.42
2022-08-14T12:09:08.902Z,3.42
2022-08-14T12:11:47.246Z,3.25
2022-08-14T12:14:30.044Z,3.00
2022-08-14T12:17:06.706Z,3.10
2022-08-14T12:19:54.371Z,3.42
2022-08-14T12:22:34.750Z,3.20
2022-08-14T12:25:10.069Z,3.22
2022-08-14T12:27:41.970Z,3.35
2022-08-14T12:30:34.338Z,2.75
2022-08-14T12:33:24.101Z,3.20
2022-08-14T12:35:57.540Z,3.10
2022-08-14T12:38:33.338Z,3.33
2022-08-14T12:41:06.360Z,2.72
2022-08-14T12:43:46.748Z,3.15
2022-08-14T12:46:30.782Z,4.03
2022-08-14T12:51:32.320Z,3.20
2022-08-14T12:54:00.439Z,3.75
2022-08-14T12:56:32.757Z,3.72
2022-08-14T12:59:02.834Z,3.83
2022-08-14T13:01:58.982Z,3.83
2022-08-14T13:04:23.280Z,3.60
2022-08-14T13:06:51.838Z,3.60
2022-08-14T13:09:21.136Z,3.78
2022-08-14T13:11:59.261Z,4.38
2022-08-14T13:14:47.533Z,5.32
2022-08-14T13:17:18.792Z,4.63
2022-08-14T13:19:48.874Z,3.60
2022-08-14T13:22:28.918Z,3.45
2022-08-14T13:25:07.244Z,15.88
2022-08-14T13:27:39.295Z,78.82
2022-08-14T13:30:10.838Z,63.85
2022-08-14T13:32:48.891Z,12.10
2022-08-14T13:35:19.614Z,4.70
2022-08-14T13:37:52.183Z,5.15
2022-08-14T13:40:26.369Z,3.78
2022-08-14T13:42:56.822Z,3.70
2022-08-14T13:48:27.328Z,3.90
2022-08-14T13:51:05.732Z,3.80
2022-08-14T13:53:52.619Z,3.65
2022-08-14T13:56:36.164Z,3.80
2022-08-14T13:59:05.060Z,3.35
2022-08-14T14:01:43.724Z,3.42
2022-08-14T14:04:19.279Z,3.15
2022-08-14T14:06:52.024Z,3.33
2022-08-14T14:09:32.347Z,3.47
2022-08-14T14:12:06.242Z,3.40
2022-08-14T14:14:51.311Z,3.78
2022-08-14T14:17:24.511Z,3.97
2022-08-14T14:19:52.252Z,3.15
2022-08-14T14:22:35.846Z,3.28
2022-08-14T14:25:08.881Z,3.30
2022-08-14T14:27:40.738Z,3.13
2022-08-14T14:30:27.671Z,3.40
2022-08-14T14:33:04.232Z,3.72
2022-08-14T14:35:34.588Z,3.35
2022-08-14T14:38:08.648Z,3.40
2022-08-14T14:40:54.189Z,3.50
2022-08-14T14:43:28.324Z,3.80
2022-08-14T14:45:56.292Z,3.70
2022-08-14T14:48:31.451Z,3.33
2022-08-14T14:51:01.530Z,3.47
2022-08-14T14:53:39.111Z,3.22
2022-08-14T14:56:49.955Z,3.40
2022-08-14T14:58:57.915Z,4.05
2022-08-14T15:01:25.778Z,3.33
2022-08-14T15:03:54.301Z,3.33
2022-08-14T15:06:22.998Z,3.55
2022-08-14T15:08:59.919Z,3.50
2022-08-14T15:11:32.671Z,3.65
2022-08-14T15:14:02.287Z,3.50
2022-08-14T15:16:49.787Z,3.35
2022-08-14T15:19:22.852Z,3.92
2022-08-14T15:21:51.151Z,4.10
2022-08-14T15:24:26.480Z,3.65
2022-08-14T15:26:58.485Z,3.30
2022-08-14T15:29:26.308Z,3.53
2022-08-14T15:34:43.194Z,3.38
2022-08-14T15:37:18.184Z,3.50
2022-08-14T15:39:46.869Z,4.18
2022-08-14T15:42:17.049Z,3.75
2022-08-14T15:44:57.556Z,4.05
2022-08-14T15:47:30.063Z,3.53
2022-08-14T15:49:59.679Z,3.63
2022-08-14T15:52:42.433Z,3.92
2022-08-14T15:55:15.182Z,3.65
2022-08-14T15:58:01.890Z,3.67
2022-08-14T16:00:49.916Z,4.10
2022-08-14T16:03:25.346Z,3.70
2022-08-14T16:06:02.743Z,3.90
2022-08-14T16:08:30.833Z,3.90
2022-08-14T16:11:03.805Z,3.88
2022-08-14T16:13:42.138Z,3.90
2022-08-14T16:16:47.405Z,3.90
2022-08-14T16:19:06.188Z,4.30
2022-08-14T16:21:37.556Z,4.43
2022-08-14T16:24:05.633Z,4.00
2022-08-14T16:26:35.186Z,4.30
2022-08-14T16:29:05.420Z,4.20
2022-08-14T16:31:36.622Z,4.53
2022-08-14T16:36:57.160Z,4.70
2022-08-14T16:39:24.656Z,4.20
2022-08-14T16:41:53.536Z,4.32
2022-08-14T16:44:31.980Z,4.35
2022-08-14T16:47:03.167Z,5.00
2022-08-14T16:50:02.653Z,4.30
2022-08-14T16:52:26.346Z,4.13
2022-08-14T16:55:06.771Z,4.35
2022-08-14T16:57:48.159Z,4.82
2022-08-14T17:00:43.047Z,4.68
2022-08-14T17:03:12.417Z,10.70
2022-08-14T17:05:43.062Z,5.97
2022-08-14T17:08:31.731Z,8.30
2022-08-14T17:11:04.768Z,5.75
2022-08-14T17:13:59.019Z,6.90
2022-08-14T17:16:33.004Z,6.07
2022-08-14T17:19:04.832Z,5.50
2022-08-14T17:21:37.425Z,6.40
2022-08-14T17:24:56.935Z,4.20
2022-08-14T17:26:55.686Z,4.63
2022-08-14T17:29:29.413Z,4.40
2022-08-14T17:32:01.834Z,4.88
2022-08-14T17:34:45.033Z,19.42
2022-08-14T17:37:24.513Z,14.68
2022-08-14T17:40:01.369Z,12.60
2022-08-14T17:42:51.682Z,9.90
2022-08-14T17:45:41.490Z,8.73
2022-08-14T17:49:14.295Z,6.40
2022-08-14T17:51:15.114Z,6.60
2022-08-14T17:53:53.904Z,6.95
2022-08-14T17:56:30.990Z,5.95
2022-08-14T17:59:05.626Z,6.85
2022-08-14T18:01:37.623Z,7.15
2022-08-14T18:04:24.381Z,6.82
2022-08-14T18:07:06.050Z,7.20
2022-08-14T18:09:56.275Z,7.60
2022-08-14T18:12:31.792Z,7.10
2022-08-14T18:15:14.133Z,7.07
2022-08-14T18:17:45.596Z,7.72
2022-08-14T18:21:40.369Z,7.72
2022-08-14T18:23:10.453Z,7.50
2022-08-14T18:25:47.182Z,6.80
2022-08-14T18:28:32.158Z,6.90
2022-08-14T18:31:43.799Z,6.70
2022-08-14T18:34:31.574Z,6.35
2022-08-14T18:37:17.311Z,5.97
2022-08-14T18:39:51.683Z,6.60
2022-08-14T18:42:44.120Z,5.80
2022-08-14T18:45:15.481Z,5.97
2022-08-14T18:50:33.220Z,7.13
2022-08-14T18:53:07.430Z,6.57
2022-08-14T18:55:54.104Z,6.10
2022-08-14T18:58:30.953Z,6.78
2022-08-14T19:01:04.458Z,6.40
2022-08-14T19:03:54.896Z,7.15
2022-08-14T19:06:55.779Z,6.25
2022-08-14T19:12:56.725Z,6.35
2022-08-14T19:15:27.429Z,6.15
2022-08-14T19:18:14.327Z,6.30
2022-08-14T19:20:48.270Z,7.18
2022-08-14T19:23:19.311Z,6.63
2022-08-14T19:25:55.097Z,6.20
2022-08-14T19:28:31.484Z,6.05
2022-08-14T19:31:42.142Z,6.38
2022-08-14T19:34:29.920Z,6.20
2022-08-14T19:37:05.737Z,6.97
2022-08-14T19:39:49.262Z,6.80
2022-08-14T19:42:28.148Z,6.60
2022-08-14T19:44:58.361Z,7.32
2022-08-14T19:47:41.262Z,7.72
2022-08-14T19:50:30.951Z,7.38
2022-08-14T19:53:05.176Z,7.25
2022-08-14T19:55:45.425Z,6.63
2022-08-14T19:58:13.296Z,7.28
2022-08-14T20:00:52.288Z,8.07
2022-08-14T20:03:23.232Z,7.55
2022-08-14T20:06:00.612Z,6.95
2022-08-14T20:09:05.965Z,7.10
2022-08-14T20:11:42.914Z,6.78
2022-08-14T20:14:20.858Z,6.97
2022-08-14T20:17:04.661Z,6.68
2022-08-14T20:19:41.357Z,6.78
2022-08-14T20:22:36.784Z,6.95
2022-08-14T20:25:12.157Z,7.20
2022-08-14T20:27:43.996Z,7.93
2022-08-14T20:33:11.226Z,7.45
2022-08-14T20:35:42.607Z,7.45
2022-08-14T20:38:29.148Z,7.57
2022-08-14T20:41:06.368Z,7.88
2022-08-14T20:43:56.336Z,7.72
2022-08-14T20:46:29.477Z,7.75
2022-08-14T20:49:00.689Z,7.57
2022-08-14T20:51:36.698Z,7.95
2022-08-14T20:54:07.159Z,7.72
2022-08-14T20:56:37.154Z,7.57
2022-08-14T20:59:17.802Z,7.88
2022-08-14T21:01:50.116Z,7.53
2022-08-14T21:04:23.864Z,8.05
2022-08-14T21:07:25.020Z,7.97
2022-08-14T21:10:05.304Z,7.55
2022-08-14T21:12:35.958Z,7.65
2022-08-14T21:15:10.368Z,7.85
2022-08-14T21:17:41.514Z,7.75
2022-08-14T21:20:25.768Z,7.80
2022-08-14T21:23:00.162Z,7.68
2022-08-14T21:25:28.968Z,8.10
2022-08-14T21:28:00.570Z,7.85
2022-08-14T21:30:46.510Z,7.75
2022-08-14T21:33:15.787Z,7.72
2022-08-14T21:35:45.541Z,7.45
2022-08-14T21:38:17.923Z,8.20
2022-08-14T21:40:48.052Z,8.30
2022-08-14T21:43:19.677Z,8.20
2022-08-14T21:45:53.275Z,7.63
2022-08-14T21:48:25.395Z,8.05
2022-08-14T21:51:01.322Z,7.93
2022-08-14T21:53:58.041Z,7.43
2022-08-14T21:56:37.052Z,8.10
2022-08-14T21:59:06.869Z,8.05
2022-08-14T22:02:00.143Z,7.95
2022-08-14T22:04:33.368Z,8.23
2022-08-14T22:07:02.373Z,7.63
2022-08-14T22:09:36.137Z,7.70
2022-08-14T22:12:06.767Z,7.65
2022-08-14T22:14:43.322Z,8.05
2022-08-14T22:17:17.062Z,7.72
2022-08-14T22:19:54.602Z,7.68
2022-08-14T22:22:23.098Z,8.05
2022-08-14T22:24:53.854Z,8.00
2022-08-14T22:27:28.455Z,8.25
2022-08-14T22:29:58.362Z,8.05
2022-08-14T22:32:56.810Z,8.10
2022-08-14T22:35:16.015Z,8.00
2022-08-14T22:37:44.728Z,7.80
2022-08-14T22:40:54.590Z,8.02
2022-08-14T22:43:01.294Z,8.05
2022-08-14T22:45:36.482Z,7.85
2022-08-14T22:48:10.946Z,8.10
2022-08-14T22:50:53.108Z,7.78
2022-08-14T22:53:20.669Z,8.25
2022-08-14T22:55:47.842Z,8.15
2022-08-14T22:58:20.360Z,8.07
2022-08-14T23:01:01.097Z,8.25
2022-08-14T23:03:34.181Z,7.85
2022-08-14T23:07:02.993Z,7.70
2022-08-14T23:09:35.114Z,7.63
2022-08-14T23:11:48.492Z,9.45
2022-08-14T23:14:23.872Z,8.95
2022-08-14T23:16:57.382Z,8.15
2022-08-14T23:19:33.850Z,9.48
2022-08-14T23:22:06.632Z,10.00
2022-08-14T23:24:35.002Z,9.95
2022-08-14T23:27:09.390Z,8.65
2022-08-14T23:29:37.815Z,8.90
2022-08-14T23:32:15.647Z,8.73
2022-08-14T23:34:48.201Z,9.73
2022-08-14T23:37:27.086Z,10.90
2022-08-14T23:39:54.864Z,11.75
2022-08-14T23:42:23.352Z,12.23
2022-08-14T23:45:09.180Z,13.50
2022-08-14T23:47:51.645Z,13.63
2022-08-14T23:50:34.234Z,15.48
2022-08-14T23:53:28.664Z,15.40
2022-08-14T23:56:07.881Z,18.05
2022-08-14T23:58:36.970Z,18.73
